Time;durP1;ratioP1;P1;durP2;ratioP2;P2;SDS_P1;SDS_P2;PMS_P1;PMS_P2;Temp;Humidity;BMP_temperature;BMP_pressure;BME280_temperature;BME280_humidity;BME280_pressure;Samples;Min_cycle;Max_cycle;Signal;HPM_P1;HPM_P2
2023/05/28 00:02:24;;;;;;;5.03;3.20;;;15.80;86.90;;;;;;5058060;28;20169;-67
2023/05/28 00:04:50;;;;;;;4.90;3.20;;;15.80;88.00;;;;;;5058259;28;20198;-67
2023/05/28 00:07:16;;;;;;;5.35;3.35;;;15.70;88.10;;;;;;5054153;28;20178;-67
2023/05/28 00:09:44;;;;;;;6.00;3.03;;;15.70;88.40;;;;;;5050681;28;20193;-67
2023/05/28 00:12:10;;;;;;;3.63;2.97;;;15.70;89.00;;;;;;5053458;28;20193;-67
2023/05/28 00:14:37;;;;;;;7.00;3.25;;;15.70;89.50;;;;;;5057233;28;20231;-66
2023/05/28 00:17:03;;;;;;;5.43;3.65;;;15.60;89.90;;;;;;5057643;28;20174;-67
2023/05/28 00:19:29;;;;;;;5.88;3.67;;;15.60;90.20;;;;;;5057317;28;20181;-66
2023/05/28 00:21:56;;;;;;;6.50;3.50;;;15.50;90.30;;;;;;5057813;28;20173;-66
2023/05/28 00:24:22;;;;;;;4.85;3.40;;;15.50;90.50;;;;;;5057279;28;20173;-67
2023/05/28 00:26:50;;;;;;;6.05;3.40;;;15.50;90.70;;;;;;5057782;28;20177;-66
2023/05/28 00:29:21;;;;;;;5.40;3.25;;;15.40;91.10;;;;;;5057725;28;20200;-66
2023/05/28 00:31:46;;;;;;;4.55;3.13;;;15.30;91.40;;;;;;5057479;28;20252;-67
2023/05/28 00:34:14;;;;;;;4.25;2.85;;;15.30;91.40;;;;;;5057251;28;20169;-66
2023/05/28 00:36:40;;;;;;;4.22;3.17;;;15.30;91.70;;;;;;5049753;28;20201;-67
2023/05/28 00:39:05;;;;;;;5.75;3.35;;;15.20;91.90;;;;;;5057185;28;20270;-67
2023/05/28 00:41:35;;;;;;;4.75;2.85;;;15.20;92.10;;;;;;5057536;28;20203;-67
2023/05/28 00:44:01;;;;;;;6.43;3.20;;;15.10;92.20;;;;;;5056983;28;20181;-66
2023/05/28 00:46:28;;;;;;;3.92;2.90;;;15.10;92.40;;;;;;5056839;28;20293;-67
2023/05/28 00:48:56;;;;;;;3.97;2.88;;;15.10;92.60;;;;;;5037629;28;20260;-66
2023/05/28 00:51:24;;;;;;;5.03;3.03;;;15.00;92.80;;;;;;5037500;28;20210;-66
2023/05/28 00:53:50;;;;;;;5.40;3.10;;;15.00;93.00;;;;;;5045046;28;20311;-66
2023/05/28 00:56:16;;;;;;;4.60;2.90;;;15.00;93.20;;;;;;5037132;28;20228;-64
2023/05/28 00:58:43;;;;;;;4.43;3.00;;;15.00;93.40;;;;;;5052235;28;20176;-64
2023/05/28 01:01:09;;;;;;;5.45;3.38;;;14.90;93.60;;;;;;5055928;28;20181;-63
2023/05/28 01:03:38;;;;;;;6.88;3.50;;;14.90;93.80;;;;;;5056998;28;20235;-64
2023/05/28 01:06:11;;;;;;;4.30;3.05;;;14.80;93.80;;;;;;5052655;28;20174;-67
2023/05/28 01:08:37;;;;;;;4.63;3.00;;;14.70;93.90;;;;;;5037441;28;20228;-66
2023/05/28 01:11:04;;;;;;;5.70;3.67;;;14.70;94.10;;;;;;5045752;28;20193;-66
2023/05/28 01:13:33;;;;;;;4.60;3.20;;;14.60;94.20;;;;;;5056763;28;20254;-65
2023/05/28 01:16:02;;;;;;;4.50;3.05;;;14.60;94.50;;;;;;5057000;28;20189;-66
2023/05/28 01:18:31;;;;;;;4.72;3.03;;;14.40;94.70;;;;;;5057372;28;20193;-66
2023/05/28 01:21:03;;;;;;;4.72;3.20;;;14.40;94.90;;;;;;5056497;28;20220;-66
2023/05/28 01:23:29;;;;;;;6.13;3.60;;;14.40;95.20;;;;;;5056518;28;20208;-65
2023/05/28 01:25:56;;;;;;;4.85;3.45;;;14.30;95.30;;;;;;5053479;28;20212;-66
2023/05/28 01:28:27;;;;;;;5.22;3.38;;;14.20;95.60;;;;;;5056501;28;20266;-66
2023/05/28 01:30:53;;;;;;;3.95;3.10;;;14.20;96.10;;;;;;5056874;28;20212;-66
2023/05/28 01:33:24;;;;;;;4.63;3.20;;;14.20;96.00;;;;;;5056612;28;20264;-66
2023/05/28 01:35:52;;;;;;;5.72;3.40;;;14.20;96.30;;;;;;5056779;28;20220;-66
2023/05/28 01:38:21;;;;;;;4.90;3.08;;;14.10;96.60;;;;;;5047007;28;20240;-66
2023/05/28 01:40:48;;;;;;;6.55;3.70;;;14.10;96.90;;;;;;5048472;28;20192;-66
2023/05/28 01:43:17;;;;;;;4.82;2.90;;;14.10;97.10;;;;;;5056376;28;20192;-66
2023/05/28 01:45:43;;;;;;;4.97;3.10;;;14.10;97.30;;;;;;5056471;28;20174;-66
2023/05/28 01:48:10;;;;;;;5.25;3.00;;;14.00;97.50;;;;;;5056271;28;20195;-66
2023/05/28 01:50:38;;;;;;;5.68;3.08;;;14.10;97.80;;;;;;5056489;28;20209;-66
2023/05/28 01:53:04;;;;;;;5.38;3.00;;;14.10;98.00;;;;;;5056215;28;20173;-66
2023/05/28 01:55:29;;;;;;;4.43;3.08;;;14.10;98.20;;;;;;5056400;28;20204;-65
2023/05/28 01:57:58;;;;;;;4.97;3.20;;;14.10;98.30;;;;;;5056399;28;20177;-66
2023/05/28 02:00:26;;;;;;;3.92;2.80;;;14.00;98.50;;;;;;5055737;28;20216;-65
2023/05/28 02:02:52;;;;;;;5.25;3.08;;;14.10;98.40;;;;;;5050023;28;20205;-66
2023/05/28 02:05:18;;;;;;;4.13;3.10;;;14.00;98.40;;;;;;5040208;28;20216;-66
2023/05/28 02:07:43;;;;;;;5.25;3.35;;;13.90;98.40;;;;;;5056111;28;20181;-66
2023/05/28 02:10:11;;;;;;;5.15;2.88;;;13.90;98.70;;;;;;5055142;28;20198;-66
2023/05/28 02:12:37;;;;;;;4.05;2.78;;;13.80;98.90;;;;;;5055822;28;20169;-66
2023/05/28 02:15:02;;;;;;;5.47;3.15;;;13.90;99.20;;;;;;5049405;28;20174;-65
2023/05/28 02:17:28;;;;;;;4.65;2.90;;;13.80;99.30;;;;;;5037307;28;20209;-65
2023/05/28 02:19:54;;;;;;;4.72;3.03;;;13.80;99.40;;;;;;5055859;28;20173;-66
2023/05/28 02:22:19;;;;;;;4.72;2.75;;;13.80;99.50;;;;;;5055622;28;20189;-66
2023/05/28 02:24:47;;;;;;;3.75;2.70;;;13.80;99.70;;;;;;5048421;28;20197;-66
2023/05/28 02:27:13;;;;;;;6.32;2.97;;;13.80;99.80;;;;;;5055557;28;20260;-66
2023/05/28 02:29:38;;;;;;;3.67;2.58;;;13.70;99.90;;;;;;5050926;28;20209;-66
2023/05/28 02:32:05;;;;;;;4.90;2.60;;;13.80;99.90;;;;;;5043162;28;20219;-66
2023/05/28 02:34:33;;;;;;;3.70;2.30;;;13.70;99.90;;;;;;5055786;28;20177;-68
2023/05/28 02:37:00;;;;;;;4.15;2.80;;;13.70;99.90;;;;;;5055230;28;20258;-66
2023/05/28 02:39:25;;;;;;;3.38;2.58;;;13.70;99.90;;;;;;5052170;28;20204;-66
2023/05/28 02:41:51;;;;;;;4.22;2.50;;;13.70;99.90;;;;;;5035952;28;20178;-65
2023/05/28 02:44:19;;;;;;;3.95;2.65;;;13.70;99.90;;;;;;5043886;28;20217;-67
2023/05/28 02:46:47;;;;;;;4.07;2.33;;;13.70;99.90;;;;;;5036399;28;20190;-65
2023/05/28 02:49:13;;;;;;;5.50;2.95;;;13.60;99.90;;;;;;5056025;28;20169;-67
2023/05/28 02:51:43;;;;;;;5.03;2.55;;;13.60;99.90;;;;;;5056735;28;20254;-67
2023/05/28 02:54:08;;;;;;;4.22;2.50;;;13.60;99.90;;;;;;5056104;28;20208;-66
2023/05/28 02:56:34;;;;;;;3.65;2.30;;;13.50;99.90;;;;;;5055687;28;20222;-66
2023/05/28 02:58:59;;;;;;;4.47;2.50;;;13.50;99.90;;;;;;5054931;28;20208;-66
2023/05/28 03:01:26;;;;;;;4.20;2.40;;;13.50;99.90;;;;;;5051187;28;20185;-66
2023/05/28 03:03:52;;;;;;;3.22;2.50;;;13.40;99.90;;;;;;5050522;28;20243;-65
2023/05/28 03:06:18;;;;;;;3.38;2.28;;;13.40;99.90;;;;;;5055046;28;20192;-66
2023/05/28 03:08:43;;;;;;;4.28;2.70;;;13.40;99.90;;;;;;5054752;28;20208;-65
2023/05/28 03:11:09;;;;;;;5.30;2.67;;;13.30;99.90;;;;;;5054542;28;20284;-66
2023/05/28 03:13:34;;;;;;;4.53;2.75;;;13.30;99.90;;;;;;5054610;28;20252;-66
2023/05/28 03:16:00;;;;;;;3.13;2.42;;;13.20;99.90;;;;;;5054786;28;20200;-66
2023/05/28 03:18:26;;;;;;;3.65;2.50;;;13.20;99.90;;;;;;5054701;28;20187;-66
2023/05/28 03:20:54;;;;;;;4.55;2.47;;;13.10;99.90;;;;;;5050081;28;20181;-66
2023/05/28 03:23:21;;;;;;;3.90;2.80;;;13.10;99.90;;;;;;5045309;28;20173;-66
2023/05/28 03:25:49;;;;;;;3.67;2.60;;;13.00;99.90;;;;;;5054076;28;20201;-66
2023/05/28 03:28:15;;;;;;;3.60;2.60;;;13.00;99.90;;;;;;5047874;28;20182;-66
2023/05/28 03:30:41;;;;;;;4.50;2.50;;;13.00;99.90;;;;;;5053701;28;20201;-66
2023/05/28 03:33:09;;;;;;;5.10;2.70;;;13.00;99.90;;;;;;5047307;28;20227;-66
2023/05/28 03:35:35;;;;;;;4.35;2.88;;;12.90;99.90;;;;;;5054030;28;20193;-66
2023/05/28 03:38:01;;;;;;;4.47;2.45;;;12.90;99.90;;;;;;5052634;28;20197;-66
2023/05/28 03:40:29;;;;;;;2.97;2.30;;;12.90;99.90;;;;;;5054623;28;20216;-66
2023/05/28 03:42:54;;;;;;;3.60;2.60;;;12.90;99.90;;;;;;5054845;28;20261;-66
2023/05/28 03:45:20;;;;;;;4.57;2.67;;;12.90;99.90;;;;;;5054226;28;20197;-66
2023/05/28 03:47:48;;;;;;;3.10;2.70;;;12.90;99.90;;;;;;5053736;28;20173;-66
2023/05/28 03:50:16;;;;;;;3.53;2.70;;;12.90;99.90;;;;;;5051905;28;20188;-66
2023/05/28 03:52:41;;;;;;;3.90;2.80;;;12.90;99.90;;;;;;5049819;28;20177;-65
2023/05/28 03:55:08;;;;;;;3.03;2.50;;;13.00;99.90;;;;;;5054374;28;20268;-66
2023/05/28 03:57:36;;;;;;;4.20;2.80;;;12.90;99.90;;;;;;5054566;28;20193;-66
2023/05/28 04:00:02;;;;;;;4.88;2.75;;;12.90;99.90;;;;;;5054368;28;20268;-66
2023/05/28 04:02:28;;;;;;;5.07;2.45;;;12.90;99.90;;;;;;5053803;28;20201;-66
2023/05/28 04:04:54;;;;;;;6.10;3.05;;;12.90;99.90;;;;;;5054612;28;20260;-64
2023/05/28 04:07:19;;;;;;;5.53;3.30;;;12.90;99.90;;;;;;5054010;28;20208;-65
2023/05/28 04:09:47;;;;;;;5.70;3.10;;;12.90;99.90;;;;;;5054302;28;20213;-65
2023/05/28 04:12:13;;;;;;;6.38;3.33;;;12.90;99.90;;;;;;5054094;28;20213;-65
2023/05/28 04:14:41;;;;;;;4.38;2.97;;;12.90;99.90;;;;;;5054261;28;20173;-66
2023/05/28 04:17:07;;;;;;;4.47;2.95;;;12.90;99.90;;;;;;5052247;28;20169;-65
2023/05/28 04:19:33;;;;;;;4.07;2.78;;;12.90;99.90;;;;;;5041315;28;20251;-69
2023/05/28 04:21:58;;;;;;;5.10;3.08;;;13.00;99.90;;;;;;5054002;28;20189;-70
2023/05/28 04:24:24;;;;;;;3.95;2.80;;;13.00;99.90;;;;;;5053806;28;20192;-69
2023/05/28 04:26:51;;;;;;;4.53;3.05;;;13.00;99.90;;;;;;5054305;28;20178;-67
2023/05/28 04:29:23;;;;;;;4.22;2.70;;;13.10;99.90;;;;;;5053764;28;20205;-68
2023/05/28 04:31:51;;;;;;;3.63;2.63;;;13.10;99.90;;;;;;5049007;28;20260;-68
2023/05/28 04:34:17;;;;;;;3.88;2.42;;;13.20;99.90;;;;;;5054399;28;20227;-68
2023/05/28 04:36:43;;;;;;;3.33;2.60;;;13.20;99.90;;;;;;5054532;28;20173;-68
2023/05/28 04:39:11;;;;;;;6.30;2.97;;;13.20;99.90;;;;;;5057211;28;20198;-68
2023/05/28 04:41:36;;;;;;;6.38;2.95;;;13.20;99.90;;;;;;5051681;28;20184;-68
2023/05/28 04:44:02;;;;;;;4.32;2.83;;;13.30;99.90;;;;;;5055445;28;20201;-68
2023/05/28 04:46:33;;;;;;;4.97;2.70;;;13.20;99.90;;;;;;5056063;28;20260;-68
2023/05/28 04:48:59;;;;;;;4.78;3.10;;;13.30;99.90;;;;;;5057067;28;20208;-68
2023/05/28 04:51:27;;;;;;;5.93;2.88;;;13.40;99.90;;;;;;5057208;28;20294;-69
2023/05/28 04:53:53;;;;;;;5.53;3.17;;;13.40;99.90;;;;;;5057623;28;20173;-68
2023/05/28 04:56:21;;;;;;;4.15;2.97;;;13.40;99.90;;;;;;5057414;28;20250;-69
2023/05/28 04:58:46;;;;;;;4.43;2.72;;;13.50;99.90;;;;;;5053900;28;20250;-68
2023/05/28 05:01:14;;;;;;;5.65;2.97;;;13.50;99.90;;;;;;5056961;28;20547;-69
2023/05/28 05:03:40;;;;;;;4.03;2.88;;;13.50;99.90;;;;;;5057111;28;20177;-69
2023/05/28 05:06:08;;;;;;;4.63;2.75;;;13.60;99.90;;;;;;5056229;28;20205;-69
2023/05/28 05:08:35;;;;;;;5.43;3.25;;;13.60;99.90;;;;;;5056802;28;20173;-69
2023/05/28 05:11:01;;;;;;;5.25;3.00;;;13.70;99.90;;;;;;5056843;28;20216;-68
2023/05/28 05:13:28;;;;;;;4.95;3.58;;;13.70;99.90;;;;;;5057283;28;20191;-69
2023/05/28 05:15:55;;;;;;;5.18;3.30;;;13.70;99.90;;;;;;5056684;28;20229;-68
2023/05/28 05:18:25;;;;;;;6.38;4.43;;;13.80;99.90;;;;;;5052992;28;20166;-69
2023/05/28 05:20:51;;;;;;;5.65;3.67;;;13.80;99.90;;;;;;5041557;28;20193;-69
2023/05/28 05:23:16;;;;;;;5.40;3.78;;;13.90;99.90;;;;;;5039930;28;20204;-69
2023/05/28 05:25:44;;;;;;;5.13;3.67;;;14.00;99.90;;;;;;5043966;28;20182;-68
2023/05/28 05:28:10;;;;;;;5.68;3.50;;;14.00;99.90;;;;;;5040992;28;20177;-69
2023/05/28 05:30:36;;;;;;;6.13;4.65;;;14.00;99.90;;;;;;5042267;28;20189;-68
2023/05/28 05:33:01;;;;;;;6.80;4.80;;;14.20;99.90;;;;;;5054380;28;20180;-69
2023/05/28 05:35:27;;;;;;;5.93;3.65;;;14.20;99.90;;;;;;5056785;28;20260;-69
2023/05/28 05:37:53;;;;;;;5.10;3.58;;;14.20;99.90;;;;;;5042696;28;20243;-69
2023/05/28 05:40:20;;;;;;;4.55;3.38;;;14.30;99.90;;;;;;5044134;28;20180;-69
2023/05/28 05:42:46;;;;;;;5.13;3.90;;;14.40;99.90;;;;;;5042426;28;20193;-69
2023/05/28 05:45:14;;;;;;;7.97;4.18;;;14.40;99.90;;;;;;5052816;28;20188;-69
2023/05/28 05:47:42;;;;;;;4.82;3.40;;;14.50;99.90;;;;;;5035499;28;20198;-69
2023/05/28 05:50:12;;;;;;;4.78;3.33;;;14.50;99.90;;;;;;5053082;28;20177;-69
2023/05/28 05:52:38;;;;;;;6.07;3.33;;;14.60;99.90;;;;;;5055663;28;20193;-69
2023/05/28 05:55:06;;;;;;;4.65;3.10;;;14.70;99.90;;;;;;5056026;28;20181;-69
2023/05/28 05:57:33;;;;;;;5.70;3.17;;;14.70;99.90;;;;;;5056041;28;20268;-69
2023/05/28 06:00:04;;;;;;;4.88;3.28;;;14.80;99.90;;;;;;5055688;28;20184;-69
2023/05/28 06:02:32;;;;;;;5.95;3.38;;;14.80;99.90;;;;;;5055826;28;20196;-69
2023/05/28 06:04:58;;;;;;;5.57;3.00;;;14.90;99.90;;;;;;5056309;28;20181;-69
2023/05/28 06:07:23;;;;;;;4.70;3.05;;;14.90;99.90;;;;;;5055761;28;20187;-69
2023/05/28 06:09:50;;;;;;;4.00;2.80;;;15.00;99.90;;;;;;5055836;28;20263;-70
2023/05/28 06:12:18;;;;;;;6.78;3.25;;;15.00;99.90;;;;;;5055886;28;20189;-69
2023/05/28 06:14:44;;;;;;;5.05;3.60;;;15.10;99.90;;;;;;5055984;28;20190;-70
2023/05/28 06:17:10;;;;;;;5.22;3.03;;;15.10;99.90;;;;;;5055776;28;20173;-69
2023/05/28 06:19:36;;;;;;;6.95;3.42;;;15.20;99.90;;;;;;5055826;28;20223;-69
2023/05/28 06:22:03;;;;;;;5.38;3.90;;;15.30;99.90;;;;;;5053758;28;20197;-69
2023/05/28 06:24:28;;;;;;;5.47;3.50;;;15.40;99.90;;;;;;5055479;28;20212;-69
2023/05/28 06:26:54;;;;;;;6.57;3.80;;;15.50;99.90;;;;;;5055263;28;20264;-69
2023/05/28 06:29:22;;;;;;;4.22;3.17;;;15.50;99.90;;;;;;5051995;28;20213;-69
2023/05/28 06:31:47;;;;;;;9.30;5.78;;;15.60;99.90;;;;;;5055203;28;20304;-68
2023/05/28 06:34:16;;;;;;;8.10;5.30;;;15.60;99.90;;;;;;5055228;28;20182;-68
2023/05/28 06:36:42;;;;;;;5.55;3.65;;;15.70;99.90;;;;;;5054751;28;20193;-69
2023/05/28 06:39:10;;;;;;;5.88;3.92;;;15.80;99.90;;;;;;5055697;28;20213;-69
2023/05/28 06:41:38;;;;;;;4.97;3.28;;;15.90;99.90;;;;;;5048468;28;20208;-69
2023/05/28 06:44:03;;;;;;;6.47;3.17;;;15.90;99.90;;;;;;5039554;28;20173;-68
2023/05/28 06:46:30;;;;;;;4.95;3.17;;;16.00;99.90;;;;;;5055063;28;20183;-69
2023/05/28 06:48:58;;;;;;;4.28;3.08;;;16.10;99.90;;;;;;5054960;28;20178;-69
2023/05/28 06:51:24;;;;;;;5.50;2.97;;;16.10;99.90;;;;;;5054936;28;20217;-69
2023/05/28 06:53:52;;;;;;;5.68;2.78;;;16.20;99.90;;;;;;5039850;28;20208;-69
2023/05/28 06:56:19;;;;;;;6.13;3.28;;;16.30;99.90;;;;;;5050729;28;20201;-69
2023/05/28 06:58:45;;;;;;;5.05;2.90;;;16.30;99.90;;;;;;5054497;28;20272;-68
2023/05/28 07:01:10;;;;;;;5.18;3.10;;;16.40;99.90;;;;;;5054369;28;20228;-69
2023/05/28 07:03:36;;;;;;;6.07;3.22;;;16.40;99.90;;;;;;5051665;28;20174;-69
2023/05/28 07:06:03;;;;;;;3.80;2.63;;;16.50;99.90;;;;;;5038426;28;20192;-69
2023/05/28 07:08:29;;;;;;;3.97;2.70;;;16.60;99.90;;;;;;5055072;28;20176;-68
2023/05/28 07:10:56;;;;;;;5.82;3.30;;;16.60;99.90;;;;;;5054716;28;20201;-69
2023/05/28 07:13:22;;;;;;;7.93;3.67;;;16.70;99.90;;;;;;5051627;28;20178;-68
2023/05/28 07:15:48;;;;;;;4.13;3.25;;;16.80;99.90;;;;;;5052382;28;20241;-69
2023/05/28 07:18:13;;;;;;;4.45;2.85;;;16.80;99.90;;;;;;5053764;28;20225;-69
2023/05/28 07:20:39;;;;;;;5.20;2.80;;;16.90;99.90;;;;;;5054061;28;20185;-69
2023/05/28 07:23:07;;;;;;;4.20;2.75;;;17.00;99.90;;;;;;5054599;28;20197;-69
2023/05/28 07:25:33;;;;;;;4.38;3.00;;;17.00;99.90;;;;;;5054501;28;20231;-69
2023/05/28 07:28:00;;;;;;;6.50;2.80;;;17.10;99.90;;;;;;5054648;28;20204;-69
2023/05/28 07:30:26;;;;;;;4.72;2.90;;;17.20;99.90;;;;;;5051130;28;20174;-69
2023/05/28 07:32:52;;;;;;;4.00;2.85;;;17.30;99.90;;;;;;5035091;28;20208;-69
2023/05/28 07:35:17;;;;;;;4.50;2.97;;;17.30;99.90;;;;;;5037734;28;20173;-69
2023/05/28 07:37:43;;;;;;;4.45;2.65;;;17.40;99.90;;;;;;5054697;28;20234;-69
2023/05/28 07:40:10;;;;;;;10.40;6.53;;;17.50;99.90;;;;;;5054381;28;20248;-69
2023/05/28 07:42:36;;;;;;;6.68;4.60;;;17.60;99.90;;;;;;5054538;28;20264;-69
2023/05/28 07:45:01;;;;;;;5.57;3.50;;;17.70;99.90;;;;;;5054506;28;20771;-69
2023/05/28 07:47:27;;;;;;;6.03;3.35;;;17.80;99.90;;;;;;5047469;28;20169;-70
2023/05/28 07:49:52;;;;;;;4.60;3.08;;;17.90;99.90;;;;;;5054208;28;20220;-69
2023/05/28 07:52:19;;;;;;;5.63;2.92;;;17.90;99.90;;;;;;5054367;28;20247;-69
2023/05/28 07:54:44;;;;;;;4.88;3.20;;;18.00;99.90;;;;;;5048837;28;20204;-69
2023/05/28 07:57:10;;;;;;;4.38;3.10;;;18.10;99.90;;;;;;5053668;28;20178;-71
2023/05/28 07:59:36;;;;;;;3.70;2.83;;;18.10;99.90;;;;;;5050019;28;20229;-69
2023/05/28 08:02:01;;;;;;;4.53;3.10;;;18.20;99.90;;;;;;5036225;28;20182;-68
2023/05/28 08:04:29;;;;;;;4.13;2.83;;;18.40;99.90;;;;;;5051826;28;20204;-69
2023/05/28 08:06:56;;;;;;;3.47;2.35;;;18.40;99.90;;;;;;5054261;28;20307;-69
2023/05/28 08:09:24;;;;;;;3.75;2.65;;;18.50;99.90;;;;;;5054074;28;20254;-69
2023/05/28 08:11:50;;;;;;;4.68;2.90;;;18.60;99.90;;;;;;5058370;28;20208;-69
2023/05/28 08:14:16;;;;;;;5.13;3.05;;;18.70;99.90;;;;;;5058445;28;20182;-69
2023/05/28 08:16:41;;;;;;;5.13;2.72;;;18.80;99.90;;;;;;5058077;28;20244;-69
2023/05/28 08:19:07;;;;;;;4.30;2.72;;;18.90;99.90;;;;;;5057904;28;20193;-70
2023/05/28 08:21:32;;;;;;;7.70;5.07;;;18.90;99.90;;;;;;5057492;28;20193;-70
2023/05/28 08:23:58;;;;;;;6.20;3.88;;;19.00;99.90;;;;;;5057614;28;20181;-70
2023/05/28 08:26:24;;;;;;;5.13;3.45;;;19.10;99.90;;;;;;5058088;28;20201;-69
2023/05/28 08:28:49;;;;;;;4.40;3.28;;;19.20;99.90;;;;;;5056897;28;20177;-70
2023/05/28 08:31:17;;;;;;;4.03;2.72;;;19.30;99.90;;;;;;5057655;28;20292;-70
2023/05/28 08:33:43;;;;;;;5.38;2.72;;;19.40;99.90;;;;;;5045159;28;20174;-69
2023/05/28 08:36:08;;;;;;;5.45;2.90;;;19.40;99.90;;;;;;5040148;28;20199;-69
2023/05/28 08:38:36;;;;;;;5.00;2.63;;;19.50;99.90;;;;;;5037915;28;20276;-69
2023/05/28 08:41:05;;;;;;;4.72;2.75;;;19.60;99.90;;;;;;5043980;28;20515;-69
2023/05/28 08:43:30;;;;;;;3.78;2.63;;;19.70;99.90;;;;;;5057144;28;20181;-68
2023/05/28 08:45:56;;;;;;;4.07;2.50;;;19.80;99.90;;;;;;5057512;28;20185;-69
2023/05/28 08:48:26;;;;;;;4.88;2.90;;;19.80;99.90;;;;;;5057453;28;20208;-68
2023/05/28 08:50:52;;;;;;;4.95;3.08;;;19.90;99.90;;;;;;5054833;28;20287;-68
2023/05/28 08:53:22;;;;;;;3.30;2.33;;;20.00;99.90;;;;;;5055108;28;20217;-69
2023/05/28 08:55:48;;;;;;;5.40;2.70;;;20.10;99.90;;;;;;5056016;28;20177;-68
2023/05/28 08:58:14;;;;;;;4.45;2.42;;;20.10;99.90;;;;;;5056961;28;20198;-68
2023/05/28 09:00:42;;;;;;;4.72;2.50;;;20.20;99.90;;;;;;5057212;28;20191;-68
2023/05/28 09:03:07;;;;;;;6.40;2.70;;;20.30;99.90;;;;;;5056308;28;20287;-69
2023/05/28 09:05:40;;;;;;;3.25;2.28;;;20.30;99.90;;;;;;5057209;28;20193;-68
2023/05/28 09:08:10;;;;;;;4.20;2.60;;;20.40;99.90;;;;;;5057560;28;20223;-68
2023/05/28 09:10:42;;;;;;;3.55;2.65;;;20.50;99.90;;;;;;5056774;28;20351;-69
2023/05/28 09:13:10;;;;;;;4.65;2.58;;;20.60;99.90;;;;;;5056942;28;20170;-69
2023/05/28 09:15:36;;;;;;;4.40;2.45;;;20.70;99.90;;;;;;5057060;28;20184;-69
2023/05/28 09:18:03;;;;;;;3.97;2.38;;;20.70;99.90;;;;;;5055023;28;20170;-70
2023/05/28 09:20:29;;;;;;;4.72;2.63;;;20.80;99.90;;;;;;5056486;28;20188;-70
2023/05/28 09:23:06;;;;;;;3.63;2.33;;;20.80;99.90;;;;;;5054894;28;20177;-71
2023/05/28 09:25:36;;;;;;;4.45;2.55;;;20.90;99.90;;;;;;5039302;28;20162;-69
2023/05/28 09:28:04;;;;;;;4.80;2.85;;;21.00;99.90;;;;;;5056670;28;20177;-69
2023/05/28 09:30:35;;;;;;;4.22;3.10;;;21.00;99.90;;;;;;5056424;28;20173;-70
2023/05/28 09:33:05;;;;;;;5.07;2.88;;;21.10;99.90;;;;;;5056952;28;20161;-70
2023/05/28 09:35:32;;;;;;;5.32;2.97;;;21.20;99.90;;;;;;5056672;28;20207;-69
2023/05/28 09:38:13;;;;;;;3.15;2.47;;;21.20;99.90;;;;;;5056301;28;20169;-69
2023/05/28 09:40:45;;;;;;;3.15;2.35;;;21.30;99.90;;;;;;5056094;28;20225;-69
2023/05/28 09:43:13;;;;;;;4.03;2.83;;;21.40;99.90;;;;;;5056664;28;20187;-69
2023/05/28 09:45:39;;;;;;;5.18;2.40;;;21.50;99.90;;;;;;5056687;28;20207;-69
2023/05/28 09:48:05;;;;;;;4.53;2.70;;;21.60;99.90;;;;;;5056040;28;20185;-69
2023/05/28 09:50:33;;;;;;;4.40;2.90;;;21.70;99.90;;;;;;5056352;28;20204;-69
2023/05/28 09:52:59;;;;;;;4.70;2.63;;;21.80;99.90;;;;;;5040102;28;20182;-69
2023/05/28 09:55:27;;;;;;;5.18;2.75;;;21.90;99.90;;;;;;5052990;28;20181;-68
2023/05/28 09:57:59;;;;;;;4.03;2.50;;;22.00;99.90;;;;;;5056093;28;20166;-68
2023/05/28 10:00:35;;;;;;;4.10;2.67;;;22.20;99.90;;;;;;5036197;28;20170;-69
2023/05/28 10:03:16;;;;;;;9.55;3.10;;;22.20;99.90;;;;;;5052929;28;20197;-69
2023/05/28 10:05:44;;;;;;;3.78;2.65;;;22.40;99.60;;;;;;5056247;28;20204;-69
2023/05/28 10:08:13;;;;;;;5.25;2.75;;;22.50;99.90;;;;;;5037466;28;20178;-71
2023/05/28 10:10:41;;;;;;;3.45;2.45;;;22.50;99.90;;;;;;5051088;28;20227;-69
2023/05/28 10:13:09;;;;;;;3.38;2.17;;;22.70;99.50;;;;;;5056175;28;20181;-69
2023/05/28 10:15:38;;;;;;;3.65;2.55;;;22.80;99.80;;;;;;5055709;28;20177;-69
2023/05/28 10:18:08;;;;;;;4.18;3.10;;;22.80;99.70;;;;;;5056143;28;20204;-69
2023/05/28 10:20:34;;;;;;;3.25;2.50;;;22.90;99.50;;;;;;5055599;28;20192;-69
2023/05/28 10:23:03;;;;;;;4.03;2.38;;;23.00;99.20;;;;;;5039336;28;20197;-69
2023/05/28 10:25:29;;;;;;;5.18;2.58;;;23.10;99.40;;;;;;5055247;28;20281;-70
2023/05/28 10:28:05;;;;;;;3.45;2.53;;;23.20;99.00;;;;;;5055525;28;20208;-69
2023/05/28 10:30:39;;;;;;;4.28;3.20;;;23.40;98.40;;;;;;5055559;28;20165;-69
2023/05/28 10:33:14;;;;;;;5.55;2.70;;;23.50;98.20;;;;;;5055653;28;20200;-70
2023/05/28 10:35:54;;;;;;;5.65;2.53;;;23.70;98.30;;;;;;5050226;28;20169;-71
2023/05/28 10:38:20;;;;;;;3.97;2.53;;;24.00;97.20;;;;;;5037940;28;20296;-68
2023/05/28 10:40:48;;;;;;;3.10;2.25;;;24.20;98.50;;;;;;5055671;28;20205;-69
2023/05/28 10:43:38;;;;;;;6.70;2.90;;;24.50;98.00;;;;;;5055195;28;20296;-69
2023/05/28 10:46:14;;;;;;;4.03;2.25;;;24.80;96.10;;;;;;5055324;28;20181;-69
2023/05/28 10:48:41;;;;;;;5.25;2.40;;;25.00;96.60;;;;;;5054739;28;20193;-71
2023/05/28 10:51:07;;;;;;;4.10;2.30;;;25.30;97.90;;;;;;5051870;28;20283;-70
2023/05/28 10:53:35;;;;;;;3.05;2.22;;;25.50;97.80;;;;;;5043524;28;20177;-69
2023/05/28 10:56:04;;;;;;;3.33;2.42;;;25.80;97.30;;;;;;5053744;28;20173;-69
2023/05/28 10:58:39;;;;;;;2.97;2.25;;;26.00;96.60;;;;;;5054984;28;20190;-68
2023/05/28 11:01:10;;;;;;;3.92;2.40;;;26.20;94.90;;;;;;5048471;28;20299;-69
2023/05/28 11:03:51;;;;;;;3.38;2.30;;;26.40;95.70;;;;;;5034976;28;20166;-69
2023/05/28 11:06:17;;;;;;;3.80;2.63;;;26.60;93.80;;;;;;5054547;28;20185;-69
2023/05/28 11:08:54;;;;;;;4.03;2.38;;;26.80;93.10;;;;;;5054659;28;20189;-69
2023/05/28 11:11:20;;;;;;;2.95;2.10;;;26.90;91.20;;;;;;5054775;28;20205;-69
2023/05/28 11:13:48;;;;;;;3.45;2.22;;;27.10;92.50;;;;;;5054966;28;20262;-71
2023/05/28 11:16:16;;;;;;;3.50;2.20;;;27.30;92.10;;;;;;5054765;28;20204;-69
2023/05/28 11:19:01;;;;;;;2.88;2.20;;;27.40;91.30;;;;;;5054278;28;20185;-69
2023/05/28 11:21:27;;;;;;;3.08;2.50;;;27.60;87.10;;;;;;5054585;28;20216;-69
2023/05/28 11:24:03;;;;;;;4.13;2.72;;;27.80;90.70;;;;;;5054512;28;20173;-69
2023/05/28 11:26:35;;;;;;;3.38;2.47;;;27.90;87.20;;;;;;5050694;28;20208;-71
2023/05/28 11:29:02;;;;;;;3.63;2.42;;;28.10;89.60;;;;;;5053156;28;20253;-69
2023/05/28 11:31:30;;;;;;;3.83;2.50;;;28.20;87.30;;;;;;5054581;28;20266;-69
2023/05/28 11:33:56;;;;;;;3.50;2.42;;;28.30;85.70;;;;;;5054748;28;20211;-69
2023/05/28 11:36:22;;;;;;;3.13;2.20;;;28.40;83.90;;;;;;5070978;28;20192;-69
2023/05/28 11:38:59;;;;;;;4.18;3.03;;;28.40;82.50;;;;;;5054771;28;20259;-69
2023/05/28 11:41:28;;;;;;;4.05;2.85;;;28.40;80.50;;;;;;5054688;28;20200;-69
2023/05/28 11:43:54;;;;;;;4.28;3.20;;;28.40;79.10;;;;;;5053986;28;20162;-68
2023/05/28 11:46:24;;;;;;;4.00;2.75;;;28.50;76.60;;;;;;5051564;28;20180;-69
2023/05/28 11:48:50;;;;;;;4.35;2.80;;;28.50;76.60;;;;;;5053146;28;20174;-69
2023/05/28 11:51:19;;;;;;;3.88;2.60;;;28.50;76.60;;;;;;5041001;28;20201;-69
2023/05/28 11:53:46;;;;;;;3.58;2.55;;;28.50;75.40;;;;;;5058701;28;20255;-68
2023/05/28 11:56:12;;;;;;;4.13;2.90;;;28.50;75.80;;;;;;5058187;28;20188;-68
2023/05/28 11:58:44;;;;;;;3.58;2.70;;;28.60;76.00;;;;;;5058575;28;20169;-69
2023/05/28 12:01:17;;;;;;;3.47;2.65;;;28.70;76.60;;;;;;5058009;28;20177;-68
2023/05/28 12:03:45;;;;;;;3.72;2.83;;;28.80;74.20;;;;;;5057851;28;20196;-68
2023/05/28 12:06:13;;;;;;;5.03;2.80;;;28.90;74.20;;;;;;5057562;28;20267;-69
2023/05/28 12:08:42;;;;;;;4.05;3.30;;;29.00;73.00;;;;;;5057819;28;20232;-68
2023/05/28 12:11:11;;;;;;;4.15;2.97;;;29.20;73.50;;;;;;5057819;28;20211;-69
2023/05/28 12:13:37;;;;;;;3.53;2.83;;;29.30;74.50;;;;;;5055192;28;20304;-69
2023/05/28 12:16:11;;;;;;;5.60;2.95;;;29.40;74.10;;;;;;5058255;28;20177;-69
2023/05/28 12:18:43;;;;;;;4.32;2.97;;;29.60;71.40;;;;;;5057739;28;20224;-70
2023/05/28 12:21:13;;;;;;;3.85;2.97;;;29.70;68.30;;;;;;5057647;28;20184;-69
2023/05/28 12:23:43;;;;;;;4.68;3.28;;;29.80;70.80;;;;;;5054237;28;20193;-69
2023/05/28 12:26:11;;;;;;;4.13;3.08;;;29.90;71.40;;;;;;5038264;28;20189;-69
2023/05/28 12:28:39;;;;;;;3.35;2.88;;;30.00;69.60;;;;;;5058271;28;20196;-68
2023/05/28 12:31:05;;;;;;;3.78;3.10;;;30.10;70.00;;;;;;5057765;28;20293;-66
2023/05/28 12:33:31;;;;;;;5.00;3.78;;;30.20;67.70;;;;;;5050245;28;20178;-66
2023/05/28 12:35:59;;;;;;;4.53;3.42;;;30.20;66.70;;;;;;5054811;28;20181;-68
2023/05/28 12:38:25;;;;;;;4.88;3.47;;;30.20;65.90;;;;;;5056361;28;20180;-65
2023/05/28 12:40:53;;;;;;;4.45;2.92;;;30.20;65.60;;;;;;5058503;28;20262;-66
2023/05/28 12:43:24;;;;;;;4.68;3.20;;;30.30;65.20;;;;;;5056937;28;20180;-65
2023/05/28 12:45:49;;;;;;;3.60;2.88;;;30.30;65.10;;;;;;5057045;28;20208;-65
2023/05/28 12:48:17;;;;;;;4.80;3.15;;;30.40;64.30;;;;;;5057392;28;20184;-65
2023/05/28 12:50:45;;;;;;;4.13;3.28;;;30.40;63.50;;;;;;5056847;28;20215;-66